14°C
Woerden, The Nederlands
Taal:  Nederlands
Updated24/04/2018 14:10 
 
Station Historical Data
 
Daily Summary for April 24, 2018 Units:  Metric    English   Both
Next Day »
Daily Weekly Monthly Yearly Custom
  Current: High: Low: Average:
Temperature: 14.2 °C 14.2 °C 9.8 °C 11.3 °C
Dew Point: 10.1 °C 10.4 °C 6.9 °C 8.5 °C
Humidity: 76% 88% 76% 83%
Wind Speed: 19.3km/h 31.5km/h 11.1km/h 20.5km/h
Wind Gust: 19.3km/h 31.5km/h - -
WindWest - - SW
Pressure: 1014.4 hPa 1015.1 hPa 1013.1 hPa -
Precipitation: 0.3 mm      
Historical Graphs
 
 
Tabular Data for April 24, 2018
Time Temperature Dew Point Pressure Wind Wind Speed Wind Gust Humidity Rainfall Rate (Hourly) solar Conditions
00:03 10.9 °C 7.2 °C 1014.8 hPa SW 22.2 km/h 22.2 km/h 78% 0.0 mm 0.0 W/m2 CLR
00:08 10.9 °C 7.2 °C 1014.8 hPa SSW 29.6 km/h 29.6 km/h 78% 0.0 mm 0.0 W/m2 CLR
00:13 10.8 °C 7.2 °C 1014.4 hPa SW 20.9 km/h 20.9 km/h 78% 0.0 mm 0.0 W/m2 CLR
00:18 10.8 °C 7.2 °C 1014.4 hPa SW 20.4 km/h 20.4 km/h 78% 0.0 mm 0.0 W/m2 CLR
00:23 10.8 °C 6.9 °C 1014.4 hPa SW 27.8 km/h 27.8 km/h 77% 0.0 mm 0.0 W/m2 CLR
00:28 10.8 °C 7.1 °C 1014.4 hPa SSW 30.6 km/h 30.6 km/h 78% 0.0 mm 0.0 W/m2 CLR
00:33 10.8 °C 7.1 °C 1014.4 hPa SW 24.1 km/h 24.1 km/h 78% 0.0 mm 0.0 W/m2 CLR
00:38 10.7 °C 7.2 °C 1014.4 hPa SW 18.5 km/h 18.5 km/h 79% 0.0 mm 0.0 W/m2 CLR
00:43 10.6 °C 7.1 °C 1014.4 hPa SW 22.2 km/h 22.2 km/h 79% 0.0 mm 0.0 W/m2 CLR
00:48 10.6 °C 7.1 °C 1014.4 hPa SW 22.2 km/h 22.2 km/h 79% 0.0 mm 0.0 W/m2 CLR
00:53 10.6 °C 7.1 °C 1014.4 hPa SSW 25.9 km/h 25.9 km/h 79% 0.0 mm 0.0 W/m2 CLR
00:58 10.5 °C 7.2 °C 1014.1 hPa SSW 22.5 km/h 22.5 km/h 80% 0.0 mm 0.0 W/m2 CLR
01:03 10.4 °C 7.1 °C 1014.1 hPa SSW 18.5 km/h 18.5 km/h 80% 0.0 mm 0.0 W/m2 CLR
01:08 10.3 °C 7.0 °C 1014.1 hPa SW 20.4 km/h 20.4 km/h 80% 0.0 mm 0.0 W/m2 CLR
01:13 10.3 °C 7.2 °C 1013.8 hPa SW 18.5 km/h 18.5 km/h 81% 0.0 mm 0.0 W/m2 CLR
01:18 10.2 °C 7.1 °C 1013.8 hPa SW 13.0 km/h 13.0 km/h 81% 0.0 mm 0.0 W/m2 CLR
01:23 10.1 °C 7.0 °C 1014.1 hPa SW 25.9 km/h 25.9 km/h 81% 0.0 mm 0.0 W/m2 CLR
01:28 10.1 °C 7.1 °C 1014.1 hPa SW 22.2 km/h 22.2 km/h 82% 0.0 mm 0.0 W/m2 CLR
01:33 10.0 °C 7.1 °C 1014.4 hPa SSW 20.4 km/h 20.4 km/h 82% 0.0 mm 0.0 W/m2 CLR
01:38 10.0 °C 7.1 °C 1014.1 hPa SSW 22.2 km/h 22.2 km/h 82% 0.0 mm 0.0 W/m2 CLR
01:43 10.1 °C 7.1 °C 1014.1 hPa WSW 20.4 km/h 20.4 km/h 82% 0.0 mm 0.0 W/m2 CLR
01:48 10.2 °C 7.2 °C 1014.1 hPa South 25.9 km/h 25.9 km/h 82% 0.0 mm 0.0 W/m2 CLR
01:53 10.2 °C 7.1 °C 1013.8 hPa SW 25.9 km/h 25.9 km/h 81% 0.0 mm 0.0 W/m2 CLR
01:58 10.1 °C 7.2 °C 1013.8 hPa SW 22.2 km/h 22.2 km/h 82% 0.0 mm 0.0 W/m2 CLR
02:00 10.1 °C 7.0 °C 1013.8 hPa SW 25.9 km/h 25.9 km/h 81% 0.0 mm 0.0 W/m2 CLR
02:05 10.1 °C 7.2 °C 1013.8 hPa SSW 22.2 km/h 22.2 km/h 82% 0.0 mm 0.0 W/m2 CLR
02:10 10.1 °C 7.2 °C 1013.8 hPa SSW 18.5 km/h 18.5 km/h 82% 0.0 mm 0.0 W/m2 CLR
02:15 10.0 °C 7.1 °C 1013.8 hPa WSW 16.7 km/h 16.7 km/h 82% 0.0 mm 0.0 W/m2 CLR
02:20 9.9 °C 7.2 °C 1013.4 hPa SSE 14.8 km/h 14.8 km/h 83% 0.0 mm 0.0 W/m2 CLR
02:25 9.8 °C 7.1 °C 1013.4 hPa SSE 13.0 km/h 13.0 km/h 83% 0.0 mm 0.0 W/m2 CLR
02:30 9.8 °C 7.0 °C 1013.4 hPa ESE 14.8 km/h 14.8 km/h 83% 0.0 mm 0.0 W/m2 CLR
02:35 9.8 °C 7.0 °C 1013.4 hPa SSE 18.5 km/h 18.5 km/h 83% 0.0 mm 0.0 W/m2 CLR
02:40 9.8 °C 7.0 °C 1013.4 hPa SSW 24.1 km/h 24.1 km/h 83% 0.0 mm 0.0 W/m2 CLR
02:45 9.8 °C 7.3 °C 1013.1 hPa SW 20.4 km/h 20.4 km/h 84% 0.0 mm 0.0 W/m2 CLR
02:50 9.9 °C 7.3 °C 1013.1 hPa SW 16.7 km/h 16.7 km/h 84% 0.0 mm 0.0 W/m2 CLR
02:55 9.9 °C 7.2 °C 1013.4 hPa SW 24.1 km/h 24.1 km/h 83% 0.0 mm 0.0 W/m2 CLR
03:00 10.0 °C 7.4 °C 1013.8 hPa SW 18.5 km/h 18.5 km/h 84% 0.0 mm 0.0 W/m2 CLR
03:05 10.2 °C 7.4 °C 1013.8 hPa SW 18.5 km/h 18.5 km/h 83% 0.0 mm 0.0 W/m2 CLR
03:10 10.3 °C 7.5 °C 1013.4 hPa South 18.5 km/h 18.5 km/h 83% 0.0 mm 0.0 W/m2 CLR
03:15 10.3 °C 7.5 °C 1013.4 hPa SW 18.5 km/h 18.5 km/h 83% 0.0 mm 0.0 W/m2 CLR
03:20 10.3 °C 7.4 °C 1013.4 hPa SW 24.1 km/h 24.1 km/h 82% 0.0 mm 0.0 W/m2 CLR
03:25 10.4 °C 7.4 °C 1013.4 hPa SW 18.5 km/h 18.5 km/h 82% 0.0 mm 0.0 W/m2 CLR
03:30 10.4 °C 7.5 °C 1013.4 hPa SSW 24.1 km/h 24.1 km/h 82% 0.0 mm 0.0 W/m2 CLR
03:35 10.4 °C 7.5 °C 1013.1 hPa SSW 18.5 km/h 18.5 km/h 82% 0.0 mm 0.0 W/m2 CLR
03:40 10.4 °C 7.4 °C 1013.1 hPa SSW 18.5 km/h 18.5 km/h 82% 0.0 mm 0.0 W/m2 CLR
03:45 10.3 °C 7.4 °C 1013.1 hPa SSW 22.2 km/h 22.2 km/h 82% 0.0 mm 0.0 W/m2 CLR
03:50 10.3 °C 7.6 °C 1013.1 hPa SW 24.1 km/h 24.1 km/h 83% 0.0 mm 0.0 W/m2 CLR
03:55 10.4 °C 7.6 °C 1013.1 hPa South 16.7 km/h 16.7 km/h 83% 0.0 mm 0.0 W/m2 CLR
04:00 10.4 °C 7.6 °C 1013.1 hPa SW 18.5 km/h 18.5 km/h 83% 0.0 mm 0.0 W/m2 CLR
04:05 10.4 °C 7.5 °C 1013.4 hPa SSW 18.5 km/h 18.5 km/h 82% 0.0 mm 0.0 W/m2 CLR
04:06 10.5 °C 7.6 °C 1013.4 hPa SSW 18.5 km/h 18.5 km/h 82% 0.0 mm 0.0 W/m2 CLR
04:12 10.6 °C 7.7 °C 1013.4 hPa SW 20.4 km/h 20.4 km/h 82% 0.0 mm 0.0 W/m2 CLR
04:17 10.7 °C 7.7 °C 1013.4 hPa SSW 18.5 km/h 18.5 km/h 82% 0.0 mm 0.0 W/m2 CLR
04:22 10.7 °C 7.7 °C 1013.4 hPa SW 18.5 km/h 18.5 km/h 82% 0.0 mm 0.0 W/m2 CLR
04:27 10.7 °C 7.6 °C 1013.1 hPa SSW 20.4 km/h 20.4 km/h 81% 0.0 mm 0.0 W/m2 CLR
04:32 10.8 °C 7.7 °C 1013.4 hPa SSW 22.2 km/h 22.2 km/h 81% 0.0 mm 0.0 W/m2 CLR
04:37 10.8 °C 7.7 °C 1013.1 hPa SSW 16.7 km/h 16.7 km/h 81% 0.0 mm 0.0 W/m2 CLR
04:42 10.8 °C 7.7 °C 1013.1 hPa SW 16.7 km/h 16.7 km/h 81% 0.0 mm 0.0 W/m2 CLR
04:47 10.8 °C 7.7 °C 1013.1 hPa SSW 18.5 km/h 18.5 km/h 81% 0.0 mm 0.0 W/m2 CLR
04:52 10.9 °C 7.8 °C 1013.1 hPa SW 20.4 km/h 20.4 km/h 81% 0.0 mm 0.0 W/m2 CLR
04:57 10.9 °C 7.8 °C 1013.4 hPa SW 14.8 km/h 14.8 km/h 81% 0.0 mm 0.0 W/m2 CLR
05:02 10.9 °C 7.8 °C 1013.4 hPa SW 20.4 km/h 20.4 km/h 81% 0.0 mm 0.0 W/m2 CLR
05:07 11.0 °C 7.9 °C 1013.4 hPa SSW 18.5 km/h 18.5 km/h 81% 0.0 mm 0.0 W/m2 CLR
05:12 11.0 °C 7.9 °C 1013.4 hPa SSW 14.8 km/h 14.8 km/h 81% 0.0 mm 0.0 W/m2 CLR
05:17 11.0 °C 7.9 °C 1013.4 hPa SW 16.7 km/h 16.7 km/h 81% 0.0 mm 0.0 W/m2 CLR
05:22 11.1 °C 7.9 °C 1013.4 hPa SSW 20.4 km/h 20.4 km/h 81% 0.0 mm 0.0 W/m2 CLR
05:27 11.1 °C 7.9 °C 1013.4 hPa WSW 17.7 km/h 17.7 km/h 81% 0.0 mm 0.0 W/m2 CLR
05:32 11.1 °C 7.9 °C 1013.4 hPa SW 18.5 km/h 18.5 km/h 81% 0.0 mm 0.0 W/m2 CLR
05:37 11.1 °C 7.9 °C 1013.4 hPa SSW 18.5 km/h 18.5 km/h 81% 0.0 mm 0.0 W/m2 CLR
05:42 11.1 °C 8.1 °C 1013.4 hPa SSW 14.8 km/h 14.8 km/h 82% 0.0 mm 0.0 W/m2 CLR
05:47 11.1 °C 8.1 °C 1013.1 hPa SW 20.9 km/h 20.9 km/h 82% 0.0 mm 0.0 W/m2 CLR
05:52 11.1 °C 8.1 °C 1013.1 hPa SSW 24.1 km/h 24.1 km/h 82% 0.0 mm 0.0 W/m2 CLR
05:57 11.1 °C 8.3 °C 1013.1 hPa SW 22.2 km/h 22.2 km/h 83% 0.0 mm 0.0 W/m2 CLR
06:02 11.1 °C 8.3 °C 1013.1 hPa SW 18.5 km/h 18.5 km/h 83% 0.0 mm 0.0 W/m2 CLR
06:07 11.1 °C 8.3 °C 1013.4 hPa SSW 20.4 km/h 20.4 km/h 83% 0.0 mm 0.0 W/m2 CLR
06:12 11.1 °C 8.3 °C 1013.1 hPa SW 18.5 km/h 18.5 km/h 83% 0.0 mm 0.0 W/m2 CLR
06:17 11.1 °C 8.3 °C 1013.1 hPa SW 14.8 km/h 14.8 km/h 83% 0.0 mm 0.0 W/m2 CLR
06:22 11.1 °C 8.3 °C 1013.1 hPa SSW 14.5 km/h 14.5 km/h 83% 0.0 mm 0.0 W/m2 CLR
06:27 11.1 °C 8.3 °C 1013.1 hPa SW 18.5 km/h 18.5 km/h 83% 0.0 mm 0.0 W/m2 OVC
06:32 11.1 °C 8.3 °C 1013.4 hPa WSW 20.9 km/h 20.9 km/h 83% 0.0 mm 0.0 W/m2 OVC
06:37 11.1 °C 8.3 °C 1013.1 hPa SSW 18.5 km/h 18.5 km/h 83% 0.0 mm 0.0 W/m2 OVC
06:42 11.2 °C 8.4 °C 1013.4 hPa SW 18.5 km/h 18.5 km/h 83% 0.0 mm 0.0 W/m2 OVC
06:47 11.2 °C 8.6 °C 1013.4 hPa WSW 16.1 km/h 16.1 km/h 84% 0.0 mm 0.0 W/m2 OVC
06:52 11.2 °C 8.4 °C 1013.4 hPa West 25.9 km/h 25.9 km/h 83% 0.0 mm 5.0 W/m2 OVC
06:57 11.2 °C 8.4 °C 1013.4 hPa WSW 18.5 km/h 18.5 km/h 83% 0.0 mm 7.0 W/m2 OVC
06:58 11.2 °C 8.4 °C 1013.4 hPa SW 16.7 km/h 16.7 km/h 83% 0.0 mm 7.0 W/m2 OVC
07:03 11.2 °C 8.4 °C 1013.4 hPa WSW 20.4 km/h 20.4 km/h 83% 0.0 mm 9.0 W/m2 OVC
07:08 11.2 °C 8.4 °C 1013.4 hPa WSW 20.9 km/h 20.9 km/h 83% 0.0 mm 11.0 W/m2 OVC
07:13 11.2 °C 8.4 °C 1013.4 hPa SW 20.4 km/h 20.4 km/h 83% 0.0 mm 14.0 W/m2 OVC
07:18 11.2 °C 8.4 °C 1013.4 hPa SW 20.4 km/h 20.4 km/h 83% 0.0 mm 18.0 W/m2 OVC
07:23 11.1 °C 8.4 °C 1013.4 hPa SW 24.1 km/h 24.1 km/h 84% 0.0 mm 16.0 W/m2 OVC
07:28 11.1 °C 8.4 °C 1013.4 hPa SW 22.2 km/h 22.2 km/h 84% 0.0 mm 25.0 W/m2 OVC
07:33 11.1 °C 8.4 °C 1013.4 hPa SW 20.4 km/h 20.4 km/h 84% 0.0 mm 26.0 W/m2 OVC
07:38 11.1 °C 8.6 °C 1013.4 hPa SW 16.7 km/h 16.7 km/h 85% 0.0 mm 33.0 W/m2 BKN
07:43 11.1 °C 8.6 °C 1013.4 hPa South 29.6 km/h 29.6 km/h 85% 0.0 mm 39.0 W/m2 FEW
07:48 11.1 °C 8.7 °C 1013.4 hPa SSW 25.9 km/h 25.9 km/h 85% 0.0 mm 54.0 W/m2 CLR
07:53 11.2 °C 8.7 °C 1013.4 hPa SSW 18.5 km/h 18.5 km/h 85% 0.0 mm 67.0 W/m2 CLR
07:58 11.2 °C 8.7 °C 1013.4 hPa SW 20.9 km/h 20.9 km/h 85% 0.0 mm 83.0 W/m2 CLR
08:03 11.2 °C 8.6 °C 1013.4 hPa SSW 31.5 km/h 31.5 km/h 84% 0.0 mm 81.0 W/m2 CLR
08:08 11.3 °C 8.8 °C 1013.4 hPa SSW 18.5 km/h 18.5 km/h 85% 0.0 mm 84.0 W/m2 CLR
08:13 11.3 °C 8.8 °C 1013.4 hPa SSW 16.7 km/h 16.7 km/h 85% 0.0 mm 81.0 W/m2 CLR
08:18 11.3 °C 8.7 °C 1013.8 hPa SW 25.9 km/h 25.9 km/h 84% 0.0 mm 81.0 W/m2 CLR
08:23 11.4 °C 8.8 °C 1013.8 hPa SW 20.4 km/h 20.4 km/h 84% 0.0 mm 79.0 W/m2 CLR
08:28 11.4 °C 8.9 °C 1013.8 hPa South 20.4 km/h 20.4 km/h 85% 0.0 mm 63.0 W/m2 CLR
08:33 11.4 °C 8.8 °C 1014.1 hPa SSW 29.6 km/h 29.6 km/h 84% 0.0 mm 42.0 W/m2 FEW
08:38 11.4 °C 8.8 °C 1014.1 hPa SW 22.2 km/h 22.2 km/h 84% 0.0 mm 56.0 W/m2 SCT
08:43 11.4 °C 8.9 °C 1014.1 hPa SSW 18.5 km/h 18.5 km/h 85% 0.0 mm 51.0 W/m2 BKN
08:48 11.4 °C 8.9 °C 1014.1 hPa SSW 22.2 km/h 22.2 km/h 85% 0.0 mm 60.0 W/m2 BKN
08:53 11.4 °C 8.9 °C 1014.1 hPa SW 18.5 km/h 18.5 km/h 85% 0.0 mm 63.0 W/m2 BKN
08:58 11.4 °C 8.9 °C 1013.8 hPa SSW 18.5 km/h 18.5 km/h 85% 0.0 mm 72.0 W/m2 BKN
09:03 11.4 °C 8.9 °C 1013.8 hPa SW 18.5 km/h 18.5 km/h 85% 0.0 mm 86.0 W/m2 BKN
09:08 11.4 °C 9.1 °C 1013.8 hPa SW 17.7 km/h 17.7 km/h 86% 0.0 mm 76.0 W/m2 BKN
09:13 11.3 °C 9.2 °C 1014.1 hPa WSW 13.0 km/h 13.0 km/h 87% 0.0 mm 69.0 W/m2 BKN
09:18 11.2 °C 9.3 °C 1014.1 hPa SW 18.5 km/h 18.5 km/h 88% 0.0 mm 56.0 W/m2 BKN
09:23 11.2 °C 9.3 °C 1014.1 hPa SW 14.8 km/h 14.8 km/h 88% 0.3 mm 63.0 W/m2 RA
09:28 11.2 °C 9.3 °C 1014.4 hPa SW 13.0 km/h 13.0 km/h 88% 0.3 mm 65.0 W/m2 RA
09:33 11.2 °C 9.3 °C 1014.4 hPa SW 22.2 km/h 22.2 km/h 88% 0.3 mm 54.0 W/m2 BKN
09:38 11.2 °C 9.3 °C 1014.4 hPa WSW 22.2 km/h 22.2 km/h 88% 0.3 mm 49.0 W/m2 BKN
09:43 11.2 °C 9.3 °C 1014.4 hPa WSW 13.0 km/h 13.0 km/h 88% 0.3 mm 88.0 W/m2 BKN
09:48 11.3 °C 9.4 °C 1014.4 hPa SW 14.8 km/h 14.8 km/h 88% 0.3 mm 121.0 W/m2 BKN
09:53 11.4 °C 9.4 °C 1014.4 hPa SW 11.1 km/h 11.1 km/h 88% 0.3 mm 162.0 W/m2 BKN
09:58 11.5 °C 9.6 °C 1014.4 hPa SSW 20.4 km/h 20.4 km/h 88% 0.3 mm 162.0 W/m2 SCT
10:03 11.6 °C 9.7 °C 1014.4 hPa SSW 18.5 km/h 18.5 km/h 88% 0.3 mm 132.0 W/m2 SCT
10:08 11.7 °C 9.6 °C 1014.4 hPa SW 20.4 km/h 20.4 km/h 87% 0.3 mm 162.0 W/m2 BKN
10:13 11.7 °C 9.6 °C 1014.4 hPa SW 20.4 km/h 20.4 km/h 87% 0.3 mm 121.0 W/m2 BKN
10:18 11.8 °C 9.7 °C 1014.8 hPa WSW 20.9 km/h 20.9 km/h 87% 0.3 mm 104.0 W/m2 BKN
10:23 11.8 °C 9.7 °C 1014.4 hPa WSW 20.9 km/h 20.9 km/h 87% 0.0 mm 100.0 W/m2 BKN
10:28 11.7 °C 9.6 °C 1014.4 hPa SW 20.4 km/h 20.4 km/h 87% 0.0 mm 91.0 W/m2 BKN
10:33 11.7 °C 9.6 °C 1014.8 hPa SW 20.4 km/h 20.4 km/h 87% 0.0 mm 88.0 W/m2 BKN
10:38 11.7 °C 9.6 °C 1014.4 hPa SW 20.9 km/h 20.9 km/h 87% 0.0 mm 130.0 W/m2 BKN
10:43 11.7 °C 9.6 °C 1014.8 hPa SW 16.7 km/h 16.7 km/h 87% 0.0 mm 153.0 W/m2 BKN
10:48 11.8 °C 9.7 °C 1014.8 hPa WSW 20.9 km/h 20.9 km/h 87% 0.0 mm 123.0 W/m2 BKN
10:53 11.8 °C 9.7 °C 1014.8 hPa SW 20.4 km/h 20.4 km/h 87% 0.0 mm 134.0 W/m2 BKN
10:57 11.9 °C 9.7 °C 1014.8 hPa SW 24.1 km/h 24.1 km/h 86% 0.0 mm 148.0 W/m2 BKN
11:02 11.9 °C 9.7 °C 1014.8 hPa WSW 20.4 km/h 20.4 km/h 86% 0.0 mm 146.0 W/m2 BKN
11:07 11.9 °C 9.7 °C 1014.8 hPa SW 25.9 km/h 25.9 km/h 86% 0.0 mm 125.0 W/m2 BKN
11:12 11.9 °C 9.5 °C 1014.8 hPa West 25.9 km/h 25.9 km/h 85% 0.0 mm 118.0 W/m2 BKN
11:15 12.0 °C 9.7 °C 1014.8 hPa WSW 19.3 km/h 19.3 km/h 86% 0.0 mm 127.0 W/m2 BKN
11:20 12.0 °C 9.6 °C 1014.8 hPa SW 16.7 km/h 16.7 km/h 85% 0.0 mm 139.0 W/m2 BKN
11:25 12.1 °C 9.8 °C 1014.8 hPa WSW 20.4 km/h 20.4 km/h 86% 0.0 mm 216.0 W/m2 BKN
11:30 12.2 °C 9.8 °C 1014.4 hPa SW 18.5 km/h 18.5 km/h 85% 0.0 mm 359.0 W/m2 BKN
11:35 12.6 °C 10.1 °C 1014.4 hPa WSW 20.4 km/h 20.4 km/h 85% 0.0 mm 471.0 W/m2 SCT
11:40 12.9 °C 10.1 °C 1014.4 hPa WSW 18.5 km/h 18.5 km/h 83% 0.0 mm 281.0 W/m2 FEW
11:45 12.9 °C 10.1 °C 1014.4 hPa SSW 22.2 km/h 22.2 km/h 83% 0.0 mm 364.0 W/m2 SCT
11:50 13.1 °C 10.1 °C 1014.4 hPa SSW 16.7 km/h 16.7 km/h 82% 0.0 mm 269.0 W/m2 SCT
11:55 13.1 °C 10.1 °C 1014.4 hPa SSW 20.4 km/h 20.4 km/h 82% 0.0 mm 281.0 W/m2 SCT
12:00 13.1 °C 10.1 °C 1014.4 hPa SSW 25.9 km/h 25.9 km/h 82% 0.0 mm 308.0 W/m2 SCT
12:05 13.2 °C 10.2 °C 1014.4 hPa SSW 18.5 km/h 18.5 km/h 82% 0.0 mm 279.0 W/m2 SCT
12:10 13.3 °C 10.1 °C 1014.4 hPa SSW 24.1 km/h 24.1 km/h 81% 0.0 mm 327.0 W/m2 SCT
12:15 13.4 °C 10.2 °C 1014.4 hPa SW 20.9 km/h 20.9 km/h 81% 0.0 mm 561.0 W/m2 SCT
12:20 13.7 °C 10.4 °C 1014.4 hPa SW 18.5 km/h 18.5 km/h 81% 0.0 mm 206.0 W/m2 SCT
12:25 13.4 °C 10.1 °C 1014.8 hPa SW 27.8 km/h 27.8 km/h 80% 0.0 mm 244.0 W/m2 SCT
12:30 13.2 °C 10.1 °C 1014.8 hPa SW 22.2 km/h 22.2 km/h 81% 0.0 mm 276.0 W/m2 BKN
12:35 13.2 °C 10.1 °C 1014.8 hPa WSW 24.1 km/h 24.1 km/h 81% 0.0 mm 169.0 W/m2 BKN
12:40 13.2 °C 10.0 °C 1014.8 hPa SW 22.2 km/h 22.2 km/h 81% 0.0 mm 185.0 W/m2 BKN
12:45 13.1 °C 9.7 °C 1014.8 hPa West 29.6 km/h 29.6 km/h 80% 0.0 mm 167.0 W/m2 BKN
12:50 13.1 °C 9.9 °C 1014.8 hPa WSW 27.8 km/h 27.8 km/h 81% 0.0 mm 107.0 W/m2 BKN
12:55 12.9 °C 9.8 °C 1015.1 hPa SW 24.1 km/h 24.1 km/h 81% 0.0 mm 114.0 W/m2 BKN
13:00 12.8 °C 9.7 °C 1015.1 hPa SW 24.1 km/h 24.1 km/h 81% 0.0 mm 107.0 W/m2 BKN
13:05 12.8 °C 9.6 °C 1015.1 hPa West 27.8 km/h 27.8 km/h 81% 0.0 mm 141.0 W/m2 BKN
13:10 12.7 °C 9.7 °C 1014.8 hPa WSW 27.8 km/h 27.8 km/h 82% 0.0 mm 146.0 W/m2 BKN
13:15 12.7 °C 9.6 °C 1014.8 hPa WNW 24.1 km/h 24.1 km/h 81% 0.0 mm 167.0 W/m2 BKN
13:20 12.8 °C 9.8 °C 1014.8 hPa SW 22.2 km/h 22.2 km/h 82% 0.0 mm 188.0 W/m2 BKN
13:25 12.9 °C 9.7 °C 1014.8 hPa West 22.2 km/h 22.2 km/h 81% 0.0 mm 274.0 W/m2 BKN
13:30 13.1 °C 9.9 °C 1014.8 hPa SW 22.2 km/h 22.2 km/h 81% 0.0 mm 216.0 W/m2 BKN
13:35 13.1 °C 9.7 °C 1014.8 hPa West 24.1 km/h 24.1 km/h 80% 0.0 mm 271.0 W/m2 BKN
13:40 13.2 °C 10.0 °C 1014.4 hPa West 22.2 km/h 22.2 km/h 81% 0.0 mm 341.0 W/m2 BKN
13:45 13.4 °C 10.2 °C 1014.4 hPa SW 18.5 km/h 18.5 km/h 81% 0.0 mm 237.0 W/m2 BKN
13:50 13.6 °C 9.8 °C 1014.4 hPa WSW 22.2 km/h 22.2 km/h 78% 0.0 mm 232.0 W/m2 BKN
13:55 13.6 °C 10.1 °C 1014.4 hPa SSW 16.7 km/h 16.7 km/h 79% 0.0 mm 360.0 W/m2 BKN
14:00 13.8 °C 10.1 °C 1014.4 hPa WSW 18.5 km/h 18.5 km/h 78% 0.0 mm 547.0 W/m2 BKN
14:05 14.1 °C 9.9 °C 1014.4 hPa SW 20.4 km/h 20.4 km/h 76% 0.0 mm 378.0 W/m2 SCT
14:10 14.2 °C 10.1 °C 1014.4 hPa West 19.3 km/h 19.3 km/h 76% 0.0 mm 578.0 W/m2 SCT
Juneau County Weather